Forside
METAR-TAF:

METAR-TAF

Lufthavne :

Black River Falls, Wisconsin, USA

Breddekreds: 44-15-03N, længdekreds: 090-51-19W, højde: 255 m

Aktuelle vejr

Denne rapport blev lavet for 17 minutter siden, kl. 15:35 UTC
Vind stille
Temperatur 11°C
Fugtighed 82%
Tryk 1008 hPa
Sigt: 16.1 km
Spredte skyer i en højde af 8000 ft

METAR: KBCK 081535Z AUTO 00000KT 10SM SCT080 11/08 A2978 RMK AO2 T01120081

Tid: 10:52 (15:52 UTC)


TAF: fraværende

Vejrobservationer og prognoser fra mere end 4000 lufthavne (METAR og TAF).

De gule og røde prikker repræsenterer de meteorologiske stationer.

Flyt musen over at se navnet på stationen.

Så klik over at se vejr observationer og prognoser.

At skifte det kort: Klik på de grønne knapper med et sort kors for at zoome ind; på den grønne knap med en bindestreg for at zoome ud; eller på de grønne pile for tilstødende kort.


METAR-TAF: